Main page
METAR-TAF:

METAR-TAF

Airports :

Ghriss Airport

Ghriss, Algeria

latitude: 35-12N, longitude: 000-08E, elevation: 514 m

Current weather observation

The report was made 56 minutes ago, at 05:00 UTC
Wind 2 kt from the South/Southeast
Temperature 15°C
Humidity 88%
Pressure 1017 hPa
Visibility: 8000 m

METAR: DAOV 250500Z 16002KT 8000 NSC 15/13 Q1017

Time: 06:56 (05:56 UTC)

Forecast

The report was made 6 hours and 56 minutes ago, at 23:00 UTC
Forecast valid from 25 at 00 UTC to 25 at 09 UTC
Wind 2 kt from variable directions
Visibility 10 km or more
no clouds below 1500 m and no cumulonimbus
Probability 30% :
Temporary
from 25 at 04 UTC to 25 at 08 UTC
Visibility: 5000 m
Few clouds at a height of 1600 ft
mist

TAF: DAOV 242300Z 2500/2509 VRB02KT CAVOK PROB30 TEMPO 2504/2508 5000 BR FEW016

Weather observations and forecasts of more than 4000 airports (METAR and TAF reports).

The available stations are represented by yellow and red dots on the map.

Hover mouse over dot to see the name of the station.

Then click to see weather observations and forecasts.

To change the map : click on the green buttons with a black cross to zoom in, on the green button with a dash to zoom out, or on the green arrows for adjacent maps.


METAR-TAF: